Time;durP1;ratioP1;P1;durP2;ratioP2;P2;SDS_P1;SDS_P2;PMS_P1;PMS_P2;Temp;Humidity;BMP_temperature;BMP_pressure;BME280_temperature;BME280_humidity;BME280_pressure;Samples;Min_cycle;Max_cycle;Signal;HPM_P1;HPM_P2
2023/07/30 00:02:21;;;;;;;;;;;20.70;70.40;;;16.87;100.00;95348.00;4983210;28;19959;-47
2023/07/30 00:04:48;;;;;;;;;;;20.70;69.50;;;16.87;100.00;95349.91;4996562;28;20369;-48
2023/07/30 00:07:14;;;;;;;;;;;20.80;69.50;;;16.86;100.00;95353.69;4990060;28;19909;-48
2023/07/30 00:09:40;;;;;;;;;;;20.80;69.40;;;16.85;100.00;95357.47;4988721;28;19956;-47
2023/07/30 00:12:08;;;;;;;;;;;20.70;69.30;;;16.84;100.00;95350.50;4990665;28;19929;-47
2023/07/30 00:14:34;;;;;;;;;;;20.70;69.20;;;16.87;100.00;95349.91;4976880;28;19948;-47
2023/07/30 00:17:01;;;;;;;;;;;20.80;69.30;;;16.88;100.00;95351.47;4994796;28;19952;-48
2023/07/30 00:19:27;;;;;;;;;;;20.80;69.30;;;16.93;100.00;95353.25;4994805;28;20000;-54
2023/07/30 00:21:53;;;;;;;;;;;20.80;69.30;;;16.94;100.00;95366.38;4989863;28;19944;-47
2023/07/30 00:24:18;;;;;;;;;;;20.80;69.20;;;16.97;100.00;95355.00;4988656;28;20389;-48
2023/07/30 00:26:44;;;;;;;;;;;20.80;69.10;;;16.97;100.00;95360.38;4996033;28;19918;-48
2023/07/30 00:29:10;;;;;;;;;;;20.90;69.10;;;17.01;100.00;95371.31;4995213;28;19949;-49
2023/07/30 00:31:36;;;;;;;;;;;20.90;69.00;;;17.01;100.00;95357.84;4996137;28;20319;-47
2023/07/30 00:34:01;;;;;;;;;;;20.90;69.00;;;17.04;100.00;95360.72;4995826;28;19915;-47
2023/07/30 00:36:27;;;;;;;;;;;21.00;69.10;;;17.07;100.00;95365.47;4995145;28;19913;-47
2023/07/30 00:38:53;;;;;;;;;;;21.00;69.00;;;17.10;100.00;95358.69;4995899;28;19909;-47
2023/07/30 00:41:19;;;;;;;;;;;21.00;69.10;;;17.15;100.00;95363.94;4994795;28;20414;-47
2023/07/30 00:43:45;;;;;;;;;;;21.00;69.00;;;17.14;100.00;95356.16;4995642;28;19913;-47
2023/07/30 00:46:12;;;;;;;;;;;21.00;68.90;;;17.14;100.00;95361.53;4995653;28;19914;-49
2023/07/30 00:48:39;;;;;;;;;;;21.10;68.90;;;17.18;100.00;95357.13;4994509;28;19910;-47
2023/07/30 00:51:06;;;;;;;;;;;21.10;68.90;;;17.18;100.00;95354.44;4982986;28;20004;-47
2023/07/30 00:53:32;;;;;;;;;;;21.10;68.80;;;17.18;100.00;95359.84;4992533;28;19910;-47
2023/07/30 00:55:58;;;;;;;;;;;21.10;68.70;;;17.19;100.00;95362.19;4988411;28;19914;-47
2023/07/30 00:58:24;;;;;;;;;;;21.10;68.60;;;17.19;100.00;95369.50;4994149;28;20003;-47
2023/07/30 01:00:52;;;;;;;;;;;21.10;68.50;;;17.16;100.00;95367.41;4994323;28;20008;-47
2023/07/30 01:03:18;;;;;;;;;;;21.10;69.30;;;17.15;100.00;95372.00;4995314;28;19952;-47
2023/07/30 01:05:45;;;;;;;;;;;21.10;68.50;;;17.15;100.00;95377.38;4994469;28;19948;-47
2023/07/30 01:08:11;;;;;;;;;;;21.10;68.50;;;17.15;100.00;95382.78;4995086;28;20308;-48
2023/07/30 01:10:40;;;;;;;;;;;21.10;68.50;;;17.13;100.00;95384.97;4995324;28;20166;-47
2023/07/30 01:13:09;;;;;;;;;;;21.10;68.50;;;17.15;100.00;95379.28;4989479;28;20005;-47
2023/07/30 01:15:37;;;;;;;;;;;21.10;69.20;;;17.13;100.00;95384.97;4979856;28;20355;-51
2023/07/30 01:18:03;;;;;;;;;;;21.10;68.40;;;17.09;100.00;95392.09;5002949;28;20004;-47
2023/07/30 01:20:32;;;;;;;;;;;21.10;68.50;;;17.06;100.00;95382.72;4995029;28;19995;-47
2023/07/30 01:22:59;;;;;;;;;;;21.10;68.50;;;17.04;100.00;95390.31;4981935;28;19910;-47
2023/07/30 01:25:33;;;;;;;;;;;21.00;68.50;;;17.03;100.00;95387.94;4994366;28;20031;-47
2023/07/30 01:28:02;;;;;;;;;;;21.00;68.50;;;17.02;100.00;95389.84;4995174;28;19956;-46
2023/07/30 01:30:39;;;;;;;;;;;21.00;68.50;;;16.99;100.00;95384.28;4993906;28;19909;-47
2023/07/30 01:33:06;;;;;;;;;;;21.00;68.60;;;16.99;100.00;95379.69;5009626;28;19920;-50
2023/07/30 01:35:32;;;;;;;;;;;21.00;68.60;;;16.96;100.00;95376.84;4992637;28;19941;-48
2023/07/30 01:38:02;;;;;;;;;;;21.00;68.60;;;16.99;100.00;95373.53;4980195;28;19920;-47
2023/07/30 01:40:28;;;;;;;;;;;20.90;68.60;;;16.96;100.00;95371.47;4994953;28;19909;-47
2023/07/30 01:42:53;;;;;;;;;;;20.90;68.60;;;16.96;100.00;95371.47;4987785;28;19909;-48
2023/07/30 01:45:19;;;;;;;;;;;20.90;68.60;;;16.96;100.00;95374.16;4987540;28;19915;-47
2023/07/30 01:47:45;;;;;;;;;;;20.90;68.70;;;16.95;100.00;95373.34;4993222;28;19913;-48
2023/07/30 01:50:11;;;;;;;;;;;20.90;68.70;;;16.94;100.00;95368.28;4982290;28;19909;-47
2023/07/30 01:52:37;;;;;;;;;;;20.90;68.70;;;16.95;100.00;95364.47;4993632;28;19917;-47
2023/07/30 01:55:03;;;;;;;;;;;20.90;68.70;;;16.93;100.00;95372.88;4993465;28;19909;-49
2023/07/30 01:57:28;;;;;;;;;;;20.80;68.60;;;16.93;100.00;95370.19;4981440;28;20004;-47
2023/07/30 01:59:54;;;;;;;;;;;20.90;68.60;;;16.93;100.00;95358.63;4993515;28;20012;-47
2023/07/30 02:02:20;;;;;;;;;;;20.80;68.60;;;16.87;100.00;95363.34;4981706;28;19956;-47
2023/07/30 02:04:46;;;;;;;;;;;20.80;68.50;;;16.80;100.00;95350.34;4993847;28;20388;-50
2023/07/30 02:07:11;;;;;;;;;;;20.80;68.50;;;16.73;100.00;95349.16;4987680;28;20033;-47
2023/07/30 02:09:37;;;;;;;;;;;20.70;68.50;;;16.67;100.00;95359.25;4986471;28;19913;-46
2023/07/30 02:12:03;;;;;;;;;;;20.70;68.50;;;16.63;100.00;95350.22;4987690;28;20368;-49
2023/07/30 02:14:29;;;;;;;;;;;20.60;68.50;;;16.53;100.00;95355.84;4985865;28;19939;-48
2023/07/30 02:16:54;;;;;;;;;;;20.60;68.40;;;16.48;100.00;95345.22;4994182;28;19914;-50
2023/07/30 02:19:20;;;;;;;;;;;20.60;68.30;;;16.38;100.00;95349.75;4987027;28;19909;-53
2023/07/30 02:21:46;;;;;;;;;;;20.50;68.30;;;16.30;100.00;95342.44;4980148;28;19917;-54
2023/07/30 02:24:12;;;;;;;;;;;20.40;68.20;;;16.26;100.00;95346.81;4988372;28;20330;-55
2023/07/30 02:26:38;;;;;;;;;;;20.30;68.20;;;16.18;100.00;95350.25;4988170;28;19917;-52
2023/07/30 02:29:05;;;;;;;;;;;20.30;68.30;;;16.14;100.00;95354.66;4974477;28;19921;-53
2023/07/30 02:31:31;;;;;;;;;;;20.20;68.40;;;16.12;100.00;95356.84;4992780;28;20348;-55
2023/07/30 02:33:57;;;;;;;;;;;20.20;68.60;;;16.13;100.00;95358.44;4981781;28;19960;-51
2023/07/30 02:36:23;;;;;;;;;;;20.10;68.60;;;16.11;100.00;95355.28;4977466;28;19913;-48
2023/07/30 02:38:49;;;;;;;;;;;20.10;68.70;;;16.09;100.00;95355.56;4974324;28;20411;-51
2023/07/30 02:41:16;;;;;;;;;;;20.00;68.70;;;15.98;100.00;95351.50;4992327;28;19992;-51
2023/07/30 02:43:42;;;;;;;;;;;20.00;68.80;;;15.85;100.00;95361.19;4993631;28;19917;-48
2023/07/30 02:46:07;;;;;;;;;;;19.90;68.60;;;15.80;100.00;95360.53;4989844;28;19910;-48
2023/07/30 02:48:33;;;;;;;;;;;19.90;68.60;;;15.75;100.00;95374.88;4984155;28;19909;-54
2023/07/30 02:50:59;;;;;;;;;;;19.80;68.60;;;15.68;100.00;95369.13;4988359;28;19910;-52
2023/07/30 02:53:25;;;;;;;;;;;19.80;68.60;;;15.56;100.00;95377.66;4985306;28;20002;-51
2023/07/30 02:55:50;;;;;;;;;;;19.70;68.60;;;15.53;100.00;95377.47;4987289;28;19956;-51
2023/07/30 02:58:16;;;;;;;;;;;19.60;68.60;;;15.50;100.00;95384.22;4993398;28;19909;-51
2023/07/30 03:00:42;;;;;;;;;;;19.60;68.70;;;15.46;100.00;95383.25;4984697;28;20012;-49
2023/07/30 03:03:08;;;;;;;;;;;19.50;68.80;;;15.42;100.00;95385.72;4981432;28;19916;-50
2023/07/30 03:05:33;;;;;;;;;;;19.50;68.90;;;15.41;100.00;95386.81;4975329;28;20000;-48
2023/07/30 03:07:59;;;;;;;;;;;19.50;69.00;;;15.42;100.00;95387.63;4993087;28;20307;-48
2023/07/30 03:10:25;;;;;;;;;;;19.50;69.10;;;15.42;100.00;95383.06;4974995;28;19914;-48
2023/07/30 03:12:50;;;;;;;;;;;19.50;69.20;;;15.41;100.00;95384.13;4986368;28;19936;-48
2023/07/30 03:15:16;;;;;;;;;;;19.50;69.20;;;15.43;100.00;95389.22;4974745;28;19916;-50
2023/07/30 03:17:42;;;;;;;;;;;19.50;69.20;;;15.44;100.00;95390.78;4976011;28;19921;-48
2023/07/30 03:20:08;;;;;;;;;;;19.50;69.20;;;15.49;100.00;95393.38;4975028;28;20340;-49
2023/07/30 03:22:34;;;;;;;;;;;19.50;69.20;;;15.48;100.00;95387.22;4985631;28;19967;-51
2023/07/30 03:25:00;;;;;;;;;;;19.50;69.50;;;15.49;100.00;95388.00;4992129;28;19909;-49
2023/07/30 03:27:26;;;;;;;;;;;19.60;69.30;;;15.52;100.00;95387.41;4993049;28;19909;-48
2023/07/30 03:29:52;;;;;;;;;;;19.50;69.30;;;15.56;100.00;95390.28;4978836;28;20012;-52
2023/07/30 03:32:18;;;;;;;;;;;19.60;69.40;;;15.60;100.00;95391.25;4993026;28;19964;-51
2023/07/30 03:34:43;;;;;;;;;;;19.60;69.50;;;15.64;100.00;95382.31;4987031;28;19913;-51
2023/07/30 03:37:09;;;;;;;;;;;19.60;70.30;;;15.70;100.00;95385.72;4988071;28;19917;-48
2023/07/30 03:39:35;;;;;;;;;;;19.70;69.60;;;15.71;100.00;95380.03;4974403;28;20336;-49
2023/07/30 03:42:01;;;;;;;;;;;19.70;69.50;;;15.71;100.00;95382.72;4984624;28;19916;-48
2023/07/30 03:44:27;;;;;;;;;;;19.80;69.50;;;15.72;100.00;95388.88;4979669;28;19909;-49
2023/07/30 03:46:52;;;;;;;;;;;19.80;69.50;;;15.71;100.00;95379.25;4992830;28;19913;-49
2023/07/30 03:49:18;;;;;;;;;;;19.80;69.50;;;15.69;100.00;95381.44;4986637;28;20276;-49
2023/07/30 03:51:44;;;;;;;;;;;19.80;69.50;;;15.66;100.00;95379.31;4973483;28;19910;-48
2023/07/30 03:54:10;;;;;;;;;;;19.80;69.40;;;15.68;100.00;95387.91;4974114;28;19937;-48
2023/07/30 03:56:35;;;;;;;;;;;19.80;69.40;;;15.71;100.00;95384.63;4973277;28;19914;-48
2023/07/30 03:59:01;;;;;;;;;;;19.80;69.40;;;15.73;100.00;95385.09;4973304;28;19909;-48
2023/07/30 04:01:28;;;;;;;;;;;19.80;69.40;;;15.73;100.00;95382.41;4990502;28;20299;-49
2023/07/30 04:03:54;;;;;;;;;;;19.80;69.40;;;15.76;100.00;95381.03;4979395;28;19917;-49
2023/07/30 04:06:20;;;;;;;;;;;19.80;69.40;;;15.73;100.00;95393.97;4991686;28;20048;-54
2023/07/30 04:08:46;;;;;;;;;;;19.80;69.40;;;15.70;100.00;95396.47;4974296;28;19916;-51
2023/07/30 04:11:11;;;;;;;;;;;19.80;69.40;;;15.65;100.00;95391.16;4983934;28;20045;-53
2023/07/30 04:13:37;;;;;;;;;;;19.80;70.20;;;15.66;100.00;95393.53;4974371;28;19910;-51
2023/07/30 04:16:03;;;;;;;;;;;19.70;69.40;;;15.71;100.00;95395.38;4973417;28;20270;-55
2023/07/30 04:18:29;;;;;;;;;;;19.70;69.50;;;15.75;100.00;95407.09;4982123;28;19917;-56
2023/07/30 04:20:58;;;;;;;;;;;19.80;69.60;;;15.79;100.00;95405.38;4992834;28;19910;-49
2023/07/30 04:23:24;;;;;;;;;;;19.80;69.70;;;15.85;100.00;95414.91;4987689;28;19910;-49
2023/07/30 04:25:50;;;;;;;;;;;19.90;69.80;;;15.91;100.00;95407.56;4992646;28;19917;-49
2023/07/30 04:28:16;;;;;;;;;;;19.90;69.80;;;15.94;100.00;95407.72;5001590;28;20008;-49
2023/07/30 04:30:42;;;;;;;;;;;20.00;69.80;;;15.94;100.00;95409.63;4984280;28;20287;-48
2023/07/30 04:33:08;;;;;;;;;;;20.00;69.70;;;15.98;100.00;95420.56;4992103;28;19909;-49
2023/07/30 04:35:34;;;;;;;;;;;20.10;69.70;;;16.04;100.00;95413.97;4981422;28;19918;-49
2023/07/30 04:38:00;;;;;;;;;;;20.10;69.80;;;16.11;100.00;95423.22;4989381;28;19914;-48
2023/07/30 04:40:25;;;;;;;;;;;20.20;69.90;;;16.17;100.00;95419.34;4988650;28;20004;-48
2023/07/30 04:42:51;;;;;;;;;;;20.30;69.90;;;16.24;100.00;95418.91;4989732;28;19910;-48
2023/07/30 04:45:17;;;;;;;;;;;20.30;69.90;;;16.29;100.00;95413.41;4988544;28;19915;-48
2023/07/30 04:47:43;;;;;;;;;;;20.40;69.80;;;16.31;100.00;95423.84;4981743;28;19920;-55
2023/07/30 04:50:09;;;;;;;;;;;20.50;69.80;;;16.33;100.00;95430.53;4996027;28;19916;-54
2023/07/30 04:52:34;;;;;;;;;;;20.50;69.70;;;16.37;100.00;95425.31;4995655;28;19920;-48
2023/07/30 04:55:00;;;;;;;;;;;20.60;69.60;;;16.36;100.00;95429.91;4983219;28;19910;-48
2023/07/30 04:57:26;;;;;;;;;;;20.60;69.60;;;16.41;100.00;95426.28;4976065;28;19914;-52
2023/07/30 04:59:52;;;;;;;;;;;20.70;69.60;;;16.49;100.00;95422.88;4976048;28;20292;-49
2023/07/30 05:02:18;;;;;;;;;;;20.80;69.60;;;16.58;100.00;95433.72;4989019;28;19910;-49
2023/07/30 05:04:44;;;;;;;;;;;20.90;69.60;;;16.69;100.00;95426.97;4987587;28;20123;-50
2023/07/30 05:07:09;;;;;;;;;;;21.00;69.70;;;16.75;100.00;95424.94;4989469;28;20434;-53
2023/07/30 05:09:35;;;;;;;;;;;21.10;69.60;;;16.82;100.00;95422.63;4995539;28;19910;-49
2023/07/30 05:12:01;;;;;;;;;;;21.10;69.50;;;16.85;100.00;95427.41;4994680;28;19916;-50
2023/07/30 05:14:27;;;;;;;;;;;21.20;69.40;;;17.03;100.00;95431.78;4984398;28;19916;-49
2023/07/30 05:16:53;;;;;;;;;;;21.30;69.30;;;17.25;100.00;95435.53;4975447;28;19913;-48
2023/07/30 05:19:18;;;;;;;;;;;21.50;69.20;;;17.48;100.00;95442.41;4991800;28;20303;-49
2023/07/30 05:21:44;;;;;;;;;;;21.80;69.10;;;17.70;100.00;95448.81;4995206;28;19960;-49
2023/07/30 05:24:10;;;;;;;;;;;22.00;68.90;;;17.91;100.00;95444.47;4989691;28;19917;-49
2023/07/30 05:26:35;;;;;;;;;;;22.30;68.80;;;18.08;100.00;95448.28;4981982;28;20004;-48
2023/07/30 05:29:01;;;;;;;;;;;22.60;68.60;;;18.23;100.00;95455.94;4982339;28;19949;-51
2023/07/30 05:31:27;;;;;;;;;;;22.80;68.30;;;18.40;100.00;95444.38;4992621;28;19955;-51
2023/07/30 05:33:53;;;;;;;;;;;23.10;68.10;;;18.52;100.00;95439.13;4982203;28;19910;-49
2023/07/30 05:36:18;;;;;;;;;;;23.20;67.80;;;18.63;100.00;95443.09;4982494;28;20323;-49
2023/07/30 05:38:44;;;;;;;;;;;23.30;67.60;;;18.62;100.00;95449.59;4983513;28;19921;-49
2023/07/30 05:41:10;;;;;;;;;;;23.50;67.50;;;18.67;100.00;95452.13;4975323;28;19913;-54
2023/07/30 05:43:36;;;;;;;;;;;23.60;67.10;;;18.70;100.00;95451.47;4981298;28;19909;-49
2023/07/30 05:46:01;;;;;;;;;;;23.70;66.90;;;18.76;100.00;95467.53;4980237;28;19909;-51
2023/07/30 05:48:27;;;;;;;;;;;23.70;66.80;;;18.79;100.00;95464.22;4981752;28;19917;-49
2023/07/30 05:50:53;;;;;;;;;;;23.60;66.70;;;18.88;100.00;95454.19;4988251;28;19960;-50
2023/07/30 05:53:19;;;;;;;;;;;23.70;66.70;;;18.86;100.00;95454.50;4974083;28;19948;-49
2023/07/30 05:55:44;;;;;;;;;;;23.70;66.70;;;18.97;100.00;95454.19;4994397;28;20004;-49
2023/07/30 05:58:10;;;;;;;;;;;23.70;66.50;;;19.02;100.00;95457.50;4994735;28;20398;-49
2023/07/30 06:00:36;;;;;;;;;;;23.70;66.40;;;19.09;100.00;95455.09;4986381;28;19916;-49
2023/07/30 06:03:02;;;;;;;;;;;23.80;66.30;;;19.06;100.00;95452.25;4997541;28;19910;-49
2023/07/30 06:05:27;;;;;;;;;;;23.80;66.10;;;19.29;100.00;95450.13;4976029;28;19909;-49
2023/07/30 06:07:53;;;;;;;;;;;24.00;66.00;;;19.55;100.00;95453.50;4990939;28;19909;-48
2023/07/30 06:10:19;;;;;;;;;;;24.20;65.90;;;19.64;98.83;95437.28;4989145;28;20377;-52
2023/07/30 06:12:44;;;;;;;;;;;24.40;65.70;;;19.79;98.08;95436.72;4974606;28;20380;-49
2023/07/30 06:15:10;;;;;;;;;;;24.50;65.40;;;19.90;94.50;95444.47;4980400;28;19909;-51
2023/07/30 06:17:36;;;;;;;;;;;24.70;65.30;;;20.05;94.67;95452.78;4984305;28;19929;-48
2023/07/30 06:20:03;;;;;;;;;;;24.90;64.90;;;20.21;93.30;95449.50;4981171;28;19932;-50
2023/07/30 06:22:28;;;;;;;;;;;25.00;64.60;;;20.43;90.35;95451.91;4994091;28;19945;-50
2023/07/30 06:24:54;;;;;;;;;;;25.30;64.50;;;20.62;88.91;95456.06;4981208;28;19960;-48
2023/07/30 06:27:20;;;;;;;;;;;25.50;64.00;;;20.67;88.60;95459.34;4982483;28;20376;-50
2023/07/30 06:29:46;;;;;;;;;;;25.70;63.40;;;20.78;87.13;95460.53;4978053;28;19909;-52
2023/07/30 06:32:11;;;;;;;;;;;26.00;63.00;;;20.95;86.23;95465.00;5009076;28;19935;-51
2023/07/30 06:34:37;;;;;;;;;;;26.10;62.60;;;20.92;85.05;95476.50;4993794;28;20288;-50
2023/07/30 06:37:03;;;;;;;;;;;26.20;62.00;;;20.84;83.77;95479.28;4988593;28;19914;-48
2023/07/30 06:39:29;;;;;;;;;;;26.10;61.80;;;21.00;84.47;95483.75;4974364;28;19910;-49
2023/07/30 06:41:55;;;;;;;;;;;26.20;61.50;;;20.85;83.92;95480.88;4978793;28;20292;-49
2023/07/30 06:44:21;;;;;;;;;;;26.40;60.70;;;21.20;84.00;95489.44;4990832;28;19910;-49
2023/07/30 06:46:46;;;;;;;;;;;26.60;60.40;;;21.49;80.70;95485.81;4974321;28;20380;-48
2023/07/30 06:49:12;;;;;;;;;;;26.80;60.30;;;21.91;81.12;95491.06;4988087;28;19910;-48
2023/07/30 06:51:38;;;;;;;;;;;27.10;60.30;;;22.15;78.27;95501.88;4993649;28;19909;-48
2023/07/30 06:54:04;;;;;;;;;;;27.50;60.00;;;22.25;78.59;95497.13;4988342;28;19914;-49
2023/07/30 06:56:30;;;;;;;;;;;27.60;59.80;;;22.14;77.21;95497.59;4985039;28;19963;-49
2023/07/30 06:58:56;;;;;;;;;;;27.60;59.50;;;22.23;77.32;95494.00;4975422;28;20315;-51
2023/07/30 07:01:22;;;;;;;;;;;27.60;59.00;;;22.33;76.81;95497.03;4989644;28;19914;-56
2023/07/30 07:03:47;;;;;;;;;;;27.80;58.90;;;22.14;76.91;95496.78;4988981;28;19916;-49
2023/07/30 07:06:13;;;;;;;;;;;27.90;58.30;;;22.34;74.84;95489.66;4973673;28;19936;-49
2023/07/30 07:08:39;;;;;;;;;;;28.10;57.70;;;22.43;73.79;95489.53;4986608;28;20386;-49
2023/07/30 07:11:05;;;;;;;;;;;28.40;57.60;;;22.29;72.83;95493.41;4979138;28;19917;-53
2023/07/30 07:13:30;;;;;;;;;;;28.40;57.30;;;22.29;73.49;95498.84;4976842;28;19909;-54
2023/07/30 07:15:56;;;;;;;;;;;28.30;56.90;;;22.21;73.46;95493.53;4982301;28;19909;-54
2023/07/30 07:18:22;;;;;;;;;;;28.40;56.20;;;22.32;73.56;95489.25;4977218;28;19924;-49
2023/07/30 07:20:48;;;;;;;;;;;28.40;55.90;;;22.24;72.96;95496.34;4992845;28;20387;-50
2023/07/30 07:23:13;;;;;;;;;;;28.40;55.40;;;22.38;71.67;95496.81;4987095;28;19910;-53
2023/07/30 07:25:39;;;;;;;;;;;28.40;55.20;;;22.46;72.30;95499.72;4980734;28;20380;-49
2023/07/30 07:28:05;;;;;;;;;;;28.40;55.20;;;22.71;72.67;95514.81;4990897;28;20359;-49
2023/07/30 07:30:36;;;;;;;;;;;28.50;56.00;;;22.70;69.93;95498.88;4982804;28;19916;-51
2023/07/30 07:33:02;;;;;;;;;;;28.60;55.40;;;22.35;69.94;95502.91;5005951;28;19909;-51
2023/07/30 07:35:28;;;;;;;;;;;28.60;54.40;;;22.25;69.90;95502.56;4986799;28;19910;-51
2023/07/30 07:37:53;;;;;;;;;;;28.60;54.00;;;22.41;70.63;95506.19;4974641;28;19917;-51
2023/07/30 07:40:19;;;;;;;;;;;28.50;53.90;;;22.50;70.48;95498.69;4981240;28;19910;-49
2023/07/30 07:42:45;;;;;;;;;;;28.50;54.10;;;22.38;69.91;95504.16;4984995;28;20009;-50
2023/07/30 07:45:10;;;;;;;;;;;28.30;54.00;;;22.44;70.02;95510.13;4972686;28;20288;-52
2023/07/30 07:47:36;;;;;;;;;;;28.30;54.10;;;21.96;70.21;95507.06;4972576;28;19913;-51
2023/07/30 07:50:02;;;;;;;;;;;28.30;53.30;;;21.92;71.41;95504.25;4984617;28;19909;-50
2023/07/30 07:52:28;;;;;;;;;;;28.20;53.20;;;21.91;70.55;95505.41;4985794;28;19924;-50
2023/07/30 07:54:53;;;;;;;;;;;28.20;53.10;;;21.90;69.21;95495.66;4998141;28;19914;-49
2023/07/30 07:57:19;;;;;;;;;;;28.20;52.90;;;21.83;68.85;95502.78;4984331;28;19917;-49
2023/07/30 07:59:45;;;;;;;;;;;28.20;52.60;;;21.72;68.37;95488.91;4990226;28;20876;-49
2023/07/30 08:02:12;;;;;;;;;;;28.20;52.30;;;21.60;69.89;95502.44;4975293;28;20368;-50
2023/07/30 08:04:38;;;;;;;;;;;28.10;52.20;;;21.60;69.04;95497.00;4973231;28;19937;-49
2023/07/30 08:07:04;;;;;;;;;;;27.90;52.20;;;21.81;69.80;95500.44;4986231;28;19949;-50
2023/07/30 08:09:31;;;;;;;;;;;28.00;52.00;;;22.40;67.67;95497.22;4986477;28;20292;-54
2023/07/30 08:11:57;;;;;;;;;;;28.30;52.10;;;22.70;67.94;95509.72;4995046;28;19913;-49
2023/07/30 08:14:23;;;;;;;;;;;28.60;52.20;;;23.19;67.16;95502.22;4986379;28;19956;-52
2023/07/30 08:19:18;;;;;;;;;;;29.40;52.20;;;23.58;62.41;95496.22;4974918;28;19968;-46
2023/07/30 08:21:44;;;;;;;;;;;29.70;51.90;;;24.22;62.14;95498.59;4981644;28;19984;-51
2023/07/30 08:24:09;;;;;;;;;;;30.20;51.70;;;24.40;61.34;95485.38;4995338;28;19920;-47
2023/07/30 08:26:35;;;;;;;;;;;30.80;51.40;;;24.82;58.35;95489.38;4995311;28;19910;-53
2023/07/30 08:29:01;;;;;;;;;;;31.20;51.00;;;25.11;57.09;95493.47;4966749;28;19910;-45
2023/07/30 08:31:26;;;;;;;;;;;31.60;50.50;;;25.61;57.07;95495.19;4973556;28;20253;-46
2023/07/30 08:33:52;;;;;;;;;;;32.10;50.10;;;25.70;54.74;95489.50;4976535;28;19967;-50
2023/07/30 08:36:18;;;;;;;;;;;32.50;49.40;;;25.61;52.89;95489.75;4970851;28;19914;-48
2023/07/30 08:38:43;;;;;;;;;;;32.50;49.00;;;25.27;55.01;95491.47;4973026;28;20362;-47
2023/07/30 08:41:10;;;;;;;;;;;32.40;48.30;;;24.93;54.46;95491.16;4966418;28;20297;-46
2023/07/30 08:43:35;;;;;;;;;;;32.40;47.50;;;24.94;55.83;95500.13;4962948;28;19950;-46
2023/07/30 08:46:01;;;;;;;;;;;32.30;46.90;;;24.85;54.86;95499.56;4966242;28;19941;-48
2023/07/30 08:48:27;;;;;;;;;;;32.40;46.80;;;24.49;57.04;95503.47;4963471;28;19910;-49
2023/07/30 08:50:57;;;;;;;;;;;32.20;46.00;;;24.79;56.49;95511.88;4961317;28;19910;-47
2023/07/30 08:53:26;;;;;;;;;;;31.80;46.40;;;24.65;56.65;95498.75;4964391;28;19949;-45
2023/07/30 08:55:55;;;;;;;;;;;31.50;46.90;;;24.47;56.23;95490.19;4965181;28;20013;-47
2023/07/30 08:58:25;;;;;;;;;;;31.20;47.00;;;24.27;57.40;95507.63;4965261;28;19910;-45
2023/07/30 09:00:53;;;;;;;;;;;30.90;47.20;;;24.14;58.00;95498.78;4964101;28;20288;-47
2023/07/30 09:03:20;;;;;;;;;;;30.50;47.40;;;24.12;59.20;95503.78;4971237;28;19917;-47
2023/07/30 09:05:47;;;;;;;;;;;30.30;47.70;;;23.86;58.66;95496.97;4959436;28;20016;-46
2023/07/30 09:08:15;;;;;;;;;;;30.20;47.70;;;23.89;58.69;95500.91;4965704;28;19964;-47
2023/07/30 09:10:41;;;;;;;;;;;30.00;47.80;;;23.76;60.72;95497.50;4967154;28;20004;-46
2023/07/30 09:13:07;;;;;;;;;;;29.80;47.80;;;23.67;60.35;95500.34;4960734;28;20321;-48
2023/07/30 09:15:38;;;;;;;;;;;29.70;48.10;;;23.59;62.23;95495.06;4990785;28;19929;-46
2023/07/30 09:18:08;;;;;;;;;;;29.60;48.10;;;23.51;59.32;95496.84;4972637;28;20435;-46
2023/07/30 09:20:41;;;;;;;;;;;29.60;48.20;;;23.36;60.47;95497.59;4965960;28;20000;-46
2023/07/30 09:23:09;;;;;;;;;;;29.50;48.10;;;23.30;60.57;95499.78;4962500;28;19917;-45
2023/07/30 09:25:36;;;;;;;;;;;29.20;48.20;;;22.59;62.58;95501.25;4973429;28;19909;-46
2023/07/30 09:28:02;;;;;;;;;;;28.80;47.90;;;22.47;66.74;95517.56;4971729;28;19917;-46
2023/07/30 09:30:29;;;;;;;;;;;28.50;48.10;;;22.13;68.23;95522.34;4961242;28;19921;-47
2023/07/30 09:32:57;;;;;;;;;;;28.30;48.30;;;21.97;70.40;95526.84;4968492;28;20442;-48
2023/07/30 09:35:25;;;;;;;;;;;28.20;48.50;;;21.81;71.65;95524.00;4965325;28;20340;-47
2023/07/30 09:38:03;;;;;;;;;;;28.00;48.60;;;21.67;73.41;95527.84;4969000;28;19913;-45
2023/07/30 09:40:38;;;;;;;;;;;28.00;49.20;;;21.47;75.31;95532.22;4957434;28;19918;-45
2023/07/30 09:43:05;;;;;;;;;;;28.00;48.80;;;21.54;75.43;95528.97;4961239;28;20288;-48
2023/07/30 09:45:36;;;;;;;;;;;27.90;48.90;;;21.52;73.87;95539.31;4956832;28;19917;-46
2023/07/30 09:48:05;;;;;;;;;;;27.90;49.20;;;21.37;73.68;95540.78;4967396;28;19922;-49
2023/07/30 09:50:33;;;;;;;;;;;27.70;50.00;;;21.46;74.48;95544.16;4975189;28;20293;-46
2023/07/30 09:53:02;;;;;;;;;;;27.50;49.50;;;21.49;74.64;95540.00;4974808;28;19913;-46
2023/07/30 09:55:28;;;;;;;;;;;27.50;50.40;;;21.54;74.88;95539.00;4971246;28;19964;-46
2023/07/30 09:57:54;;;;;;;;;;;27.50;49.90;;;21.71;74.36;95550.44;4965110;28;19918;-53
2023/07/30 10:00:20;;;;;;;;;;;27.60;49.80;;;21.98;74.88;95550.94;4971697;28;19996;-47
2023/07/30 10:02:48;;;;;;;;;;;27.90;49.70;;;22.41;71.08;95541.47;4964856;28;19913;-47
2023/07/30 10:05:23;;;;;;;;;;;28.40;49.70;;;22.97;68.12;95547.03;4974898;28;19953;-50
2023/07/30 10:07:57;;;;;;;;;;;29.00;49.50;;;23.53;67.16;95548.91;4974424;28;19952;-50
2023/07/30 10:10:26;;;;;;;;;;;29.70;49.00;;;23.85;63.37;95549.78;4970267;28;19953;-49
2023/07/30 10:12:55;;;;;;;;;;;30.20;48.60;;;24.23;63.02;95548.38;4978295;28;19936;-48
2023/07/30 10:15:23;;;;;;;;;;;30.60;48.30;;;24.27;60.85;95543.78;4960707;28;19909;-47
2023/07/30 10:17:51;;;;;;;;;;;30.80;48.00;;;24.33;59.12;95547.81;4967563;28;19918;-48
2023/07/30 10:20:26;;;;;;;;;;;30.90;47.40;;;24.57;61.43;95535.94;4966715;28;19910;-49
2023/07/30 10:22:58;;;;;;;;;;;31.20;47.10;;;24.86;58.28;95548.25;4956824;28;19936;-49
2023/07/30 10:25:46;;;;;;;;;;;31.70;47.00;;;24.96;57.84;95548.81;4970722;28;20423;-47
2023/07/30 10:28:30;;;;;;;;;;;32.10;46.60;;;24.80;58.72;95555.13;4974357;28;20016;-50
2023/07/30 10:31:16;;;;;;;;;;;31.90;46.00;;;24.64;58.55;95568.78;4972722;28;19910;-47
2023/07/30 10:33:49;;;;;;;;;;;31.80;46.10;;;24.56;58.04;95555.34;4962187;28;20135;-47
2023/07/30 10:36:33;;;;;;;;;;;31.80;46.00;;;24.12;57.70;95564.41;4966987;28;19917;-53
2023/07/30 10:39:26;;;;;;;;;;;31.70;45.60;;;23.78;56.97;95560.47;4965823;28;19921;-51
2023/07/30 10:41:58;;;;;;;;;;;31.50;45.30;;;23.78;58.82;95574.88;4971863;28;19956;-50
2023/07/30 10:44:27;;;;;;;;;;;31.40;45.00;;;24.22;56.49;95568.53;4962431;28;19917;-46
2023/07/30 10:46:55;;;;;;;;;;;31.80;44.80;;;24.49;57.96;95561.44;4954449;28;19953;-48
2023/07/30 10:49:22;;;;;;;;;;;32.10;44.30;;;24.55;55.19;95557.28;4965259;28;19957;-47
2023/07/30 10:51:48;;;;;;;;;;;32.10;44.30;;;24.38;56.34;95563.88;4953923;28;19972;-47
2023/07/30 10:54:16;;;;;;;;;;;31.70;44.30;;;24.05;55.87;95577.06;4954130;28;19910;-51
2023/07/30 10:56:42;;;;;;;;;;;31.30;44.40;;;23.95;56.07;95570.22;4967396;28;19914;-45
2023/07/30 10:59:10;;;;;;;;;;;31.10;44.10;;;24.16;56.12;95576.19;4973853;28;19957;-49
2023/07/30 11:01:43;;;;;;;;;;;31.20;44.10;;;24.19;55.55;95569.25;4956231;28;19910;-49
2023/07/30 11:04:15;;;;;;;;;;;31.20;44.20;;;24.40;56.40;95566.25;4961133;28;19917;-46
2023/07/30 11:06:49;;;;;;;;;;;31.10;44.40;;;24.69;54.75;95563.06;4970678;28;19909;-50
2023/07/30 11:09:24;;;;;;;;;;;31.30;44.50;;;24.56;55.54;95568.97;4963875;28;19924;-46
2023/07/30 11:11:52;;;;;;;;;;;31.40;44.50;;;24.65;53.53;95561.38;4971374;28;20020;-47
2023/07/30 11:14:26;;;;;;;;;;;31.60;44.10;;;25.15;52.74;95559.75;4973540;28;19909;-49